createdAt,value
2019-01-31T00:00:31.166Z,63.3
2019-01-31T00:01:20.957Z,63.3
2019-01-31T00:02:11.282Z,63.2
2019-01-31T00:03:01.605Z,63.2
2019-01-31T00:03:51.657Z,63.2
2019-01-31T00:04:41.447Z,63.2
2019-01-31T00:05:31.501Z,63.2
2019-01-31T00:06:21.289Z,63.2
2019-01-31T00:07:11.697Z,63.1
2019-01-31T00:08:01.152Z,63.1
2019-01-31T00:08:51.467Z,63.1
2019-01-31T00:09:42.172Z,63.1
2019-01-31T00:10:31.867Z,63.1
2019-01-31T00:11:22.184Z,63.1
2019-01-31T00:12:11.989Z,63.1
2019-01-31T00:13:02.037Z,63.1
2019-01-31T00:13:52.069Z,63.1
2019-01-31T00:14:42.414Z,63.1
2019-01-31T00:15:32.491Z,63.1
2019-01-31T00:16:22.022Z,63.1
2019-01-31T00:17:11.477Z,63.1
2019-01-31T00:18:02.373Z,63.1
2019-01-31T00:18:51.886Z,63.1
2019-01-31T00:19:42.496Z,63.1
2019-01-31T00:20:32.549Z,63.1
2019-01-31T00:21:22.135Z,63
2019-01-31T00:22:12.661Z,63
2019-01-31T00:23:02.743Z,63
2019-01-31T00:23:53.053Z,63
2019-01-31T00:24:42.836Z,63
2019-01-31T00:25:32.061Z,62.9
2019-01-31T00:26:22.675Z,62.9
2019-01-31T00:27:12.820Z,63
2019-01-31T00:28:02.795Z,62.9
2019-01-31T00:28:53.120Z,62.9
2019-01-31T00:29:43.567Z,62.9
2019-01-31T00:30:32.959Z,62.9
2019-01-31T00:31:23.306Z,62.9
2019-01-31T00:32:12.875Z,62.9
2019-01-31T00:33:03.270Z,62.9
2019-01-31T00:33:53.488Z,62.9
2019-01-31T00:34:43.240Z,62.9
2019-01-31T00:35:33.580Z,62.9
2019-01-31T00:36:23.795Z,62.9
2019-01-31T00:37:13.461Z,62.9
2019-01-31T00:38:04.029Z,62.9
2019-01-31T00:39:00.410Z,62.8
2019-01-31T00:39:44.272Z,62.8
2019-01-31T00:40:33.782Z,62.8
2019-01-31T00:41:23.427Z,62.8
2019-01-31T00:42:13.798Z,62.8
2019-01-31T00:43:04.115Z,62.8
2019-01-31T00:43:54.150Z,62.8
2019-01-31T00:44:44.233Z,62.8
2019-01-31T00:45:33.719Z,62.8
2019-01-31T00:46:24.470Z,62.8
2019-01-31T00:47:14.776Z,62.8
2019-01-31T00:48:03.910Z,62.8
2019-01-31T00:48:54.569Z,62.8
2019-01-31T00:49:44.284Z,62.8
2019-01-31T00:50:34.647Z,62.8
2019-01-31T00:51:24.400Z,62.7
2019-01-31T00:52:15.057Z,62.7
2019-01-31T00:53:04.544Z,62.7
2019-01-31T00:53:54.585Z,62.7
2019-01-31T00:54:44.659Z,62.7
2019-01-31T00:55:35.253Z,62.7
2019-01-31T00:56:25.306Z,62.7
2019-01-31T00:57:14.806Z,62.6
2019-01-31T00:58:04.869Z,62.6
2019-01-31T00:58:54.929Z,62.6
2019-01-31T00:59:45.265Z,62.6
2019-01-31T01:00:35.056Z,62.6
2019-01-31T01:01:25.655Z,62.6
2019-01-31T01:02:14.894Z,62.6
2019-01-31T01:03:05.810Z,62.6
2019-01-31T01:03:55.587Z,62.6
2019-01-31T01:04:45.674Z,62.6
2019-01-31T01:05:35.506Z,62.6
2019-01-31T01:06:25.464Z,62.6
2019-01-31T01:07:16.068Z,62.6
2019-01-31T01:08:05.838Z,62.6
2019-01-31T01:08:56.183Z,62.5
2019-01-31T01:09:45.686Z,62.5
2019-01-31T01:10:36.116Z,62.5
2019-01-31T01:11:26.101Z,62.5
2019-01-31T01:12:16.170Z,62.5
2019-01-31T01:13:06.188Z,62.5
2019-01-31T01:13:55.428Z,62.4
2019-01-31T01:14:46.690Z,62.4
2019-01-31T01:15:35.868Z,62.4
2019-01-31T01:16:26.495Z,62.4
2019-01-31T01:17:16.565Z,62.4
2019-01-31T01:18:06.015Z,62.4
2019-01-31T01:18:56.600Z,62.4
2019-01-31T01:19:46.946Z,62.4
2019-01-31T01:20:36.190Z,62.4
2019-01-31T01:21:26.758Z,62.4
2019-01-31T01:22:16.844Z,62.4
2019-01-31T01:23:07.157Z,62.4
2019-01-31T01:23:56.670Z,62.4
2019-01-31T01:24:47.285Z,62.4
2019-01-31T01:25:36.805Z,62.4
2019-01-31T01:26:26.829Z,62.4
2019-01-31T01:27:17.457Z,62.3
2019-01-31T01:28:07.502Z,62.3
2019-01-31T01:28:57.327Z,62.3
2019-01-31T01:29:46.254Z,62.3
2019-01-31T01:30:37.127Z,62.3
2019-01-31T01:31:27.460Z,62.3
2019-01-31T01:32:17.244Z,62.3
2019-01-31T01:33:07.292Z,62.3
2019-01-31T01:33:57.082Z,62.3
2019-01-31T01:34:48.102Z,62.3
2019-01-31T01:35:37.491Z,62.3
2019-01-31T01:36:27.685Z,62.3
2019-01-31T01:37:17.299Z,62.3
2019-01-31T01:38:07.371Z,62.3
2019-01-31T01:38:57.969Z,62.2
2019-01-31T01:39:48.294Z,62.2
2019-01-31T01:40:38.417Z,62.2
2019-01-31T01:41:27.881Z,62.2
2019-01-31T01:42:17.936Z,62.2
2019-01-31T01:43:07.988Z,62.2
2019-01-31T01:43:58.434Z,62.2
2019-01-31T01:44:47.561Z,62.2
2019-01-31T01:45:38.533Z,62.1
2019-01-31T01:46:28.222Z,62.1
2019-01-31T01:47:18.001Z,62.1
2019-01-31T01:48:08.062Z,62.1
2019-01-31T01:48:58.961Z,62.1
2019-01-31T01:49:48.720Z,62.1
2019-01-31T01:50:39.088Z,62.1
2019-01-31T01:51:28.571Z,62.1
2019-01-31T01:52:19.173Z,62.1
2019-01-31T01:53:08.955Z,62.1
2019-01-31T01:53:59.121Z,62.1
2019-01-31T01:54:48.803Z,62.1
2019-01-31T01:55:39.130Z,62.1
2019-01-31T01:56:29.480Z,62.1
2019-01-31T01:57:18.695Z,62
2019-01-31T01:58:09.045Z,62
2019-01-31T01:58:59.662Z,62
2019-01-31T01:59:49.158Z,62
2019-01-31T02:00:39.815Z,62
2019-01-31T02:01:29.680Z,62
2019-01-31T02:02:19.600Z,62
2019-01-31T02:03:09.659Z,61.9
2019-01-31T02:03:59.182Z,61.9
2019-01-31T02:04:49.245Z,61.9
2019-01-31T02:05:39.557Z,61.9
2019-01-31T02:06:29.219Z,61.9
2019-01-31T02:07:20.089Z,61.9
2019-01-31T02:08:10.112Z,61.9
2019-01-31T02:09:00.057Z,61.9
2019-01-31T02:09:49.835Z,61.9
2019-01-31T02:10:39.621Z,61.9
2019-01-31T02:11:29.682Z,61.9
2019-01-31T02:12:20.571Z,61.9
2019-01-31T02:13:10.349Z,61.9
2019-01-31T02:14:00.409Z,61.9
2019-01-31T02:14:50.191Z,61.8
2019-01-31T02:15:40.792Z,61.9
2019-01-31T02:16:30.307Z,61.8
2019-01-31T02:17:20.641Z,61.8
2019-01-31T02:18:10.703Z,61.8
2019-01-31T02:19:00.472Z,61.8
2019-01-31T02:19:50.538Z,61.8
2019-01-31T02:20:40.871Z,61.8
2019-01-31T02:21:30.384Z,61.8
2019-01-31T02:22:20.983Z,61.8
2019-01-31T02:23:11.054Z,61.8
2019-01-31T02:24:00.837Z,61.8
2019-01-31T02:24:50.951Z,61.8
2019-01-31T02:25:41.218Z,61.8
2019-01-31T02:26:31.006Z,61.7
2019-01-31T02:27:21.061Z,61.7
2019-01-31T02:28:11.406Z,61.7
2019-01-31T02:29:01.311Z,61.7
2019-01-31T02:29:51.517Z,61.7
2019-01-31T02:30:41.301Z,61.7
2019-01-31T02:31:31.088Z,61.7
2019-01-31T02:32:21.740Z,61.6
2019-01-31T02:33:12.031Z,61.6
2019-01-31T02:34:01.831Z,61.7
2019-01-31T02:34:51.958Z,61.6
2019-01-31T02:35:41.926Z,61.6
2019-01-31T02:36:31.717Z,61.6
2019-01-31T02:37:22.311Z,61.6
2019-01-31T02:38:12.090Z,61.6
2019-01-31T02:39:01.933Z,61.6
2019-01-31T02:39:52.219Z,61.6
2019-01-31T02:40:42.294Z,61.6
2019-01-31T02:41:32.633Z,61.5
2019-01-31T02:42:21.851Z,61.6
2019-01-31T02:43:12.777Z,61.8
2019-01-31T02:44:01.942Z,61.9
2019-01-31T02:44:52.847Z,62
2019-01-31T02:45:42.344Z,62.1
2019-01-31T02:46:32.426Z,62.2
2019-01-31T02:47:22.479Z,62.4
2019-01-31T02:48:12.242Z,62.6
2019-01-31T02:49:02.604Z,62.6
2019-01-31T02:49:53.179Z,62.8
2019-01-31T02:50:43.271Z,62.9
2019-01-31T02:51:32.850Z,62.9
2019-01-31T02:52:22.801Z,63
2019-01-31T02:53:13.134Z,63.1
2019-01-31T02:54:02.379Z,63.3
2019-01-31T02:54:53.010Z,63.4
2019-01-31T02:55:42.484Z,63.4
2019-01-31T02:56:33.394Z,63.5
2019-01-31T02:57:23.177Z,63.7
2019-01-31T02:58:13.001Z,63.8
2019-01-31T02:59:03.046Z,63.8
2019-01-31T02:59:53.598Z,63.8
2019-01-31T03:00:44.018Z,64.1
2019-01-31T03:01:33.990Z,64.1
2019-01-31T03:02:24.043Z,64.2
2019-01-31T03:03:14.121Z,64.2
2019-01-31T03:04:03.620Z,64.4
2019-01-31T03:04:53.682Z,64.5
2019-01-31T03:08:26.514Z,64.8
2019-01-31T03:09:16.506Z,64.8
2019-01-31T03:10:06.595Z,64.8
2019-01-31T03:10:56.087Z,64.8
2019-01-31T03:11:47.020Z,65.1
2019-01-31T03:12:36.759Z,65.1
2019-01-31T03:13:26.797Z,65.1
2019-01-31T03:14:17.138Z,65.1
2019-01-31T03:15:06.943Z,65.2
2019-01-31T03:15:56.958Z,65.3
2019-01-31T03:16:47.025Z,65.4
2019-01-31T03:17:36.855Z,65.4
2019-01-31T03:18:27.454Z,65.4
2019-01-31T03:19:17.509Z,65.4
2019-01-31T03:20:06.988Z,65.6
2019-01-31T03:20:57.608Z,65.6
2019-01-31T03:21:47.406Z,65.6
2019-01-31T03:22:37.433Z,65.6
2019-01-31T03:23:27.902Z,65.7
2019-01-31T03:24:17.299Z,65.8
2019-01-31T03:25:07.449Z,65.9
2019-01-31T03:25:57.382Z,65.9
2019-01-31T03:26:47.710Z,65.9
2019-01-31T03:27:37.797Z,65.9
2019-01-31T03:28:28.114Z,66.1
2019-01-31T03:29:17.895Z,66.1
2019-01-31T03:30:08.295Z,66.1
2019-01-31T03:30:57.265Z,66.1
2019-01-31T03:31:48.469Z,66.2
2019-01-31T03:32:38.490Z,66.1
2019-01-31T03:33:28.544Z,66.2
2019-01-31T03:34:17.974Z,66.3
2019-01-31T03:35:08.368Z,66.4
2019-01-31T03:35:58.364Z,66.4
2019-01-31T03:36:48.414Z,66.4
2019-01-31T03:37:38.454Z,66.4
2019-01-31T03:38:28.909Z,66.4
2019-01-31T03:39:18.571Z,66.4
2019-01-31T03:40:11.218Z,66.4
2019-01-31T03:40:58.973Z,66.6
2019-01-31T03:41:49.086Z,66.6
2019-01-31T03:42:38.932Z,66.6
2019-01-31T03:43:28.592Z,66.6
2019-01-31T03:44:19.235Z,66.6
2019-01-31T03:45:09.028Z,66.6
2019-01-31T03:45:59.063Z,66.6
2019-01-31T03:46:48.827Z,66.6
2019-01-31T03:47:39.420Z,66.6
2019-01-31T03:48:29.513Z,66.6
2019-01-31T03:49:19.053Z,66.6
2019-01-31T03:50:10.936Z,66.6
2019-01-31T03:50:59.382Z,66.6
2019-01-31T03:51:49.713Z,66.6
2019-01-31T03:52:39.231Z,66.6
2019-01-31T03:53:29.570Z,66.6
2019-01-31T03:54:19.687Z,66.6
2019-01-31T03:55:09.676Z,66.6
2019-01-31T03:55:59.755Z,66.6
2019-01-31T03:56:50.086Z,66.6
2019-01-31T03:57:40.120Z,66.6
2019-01-31T03:58:30.180Z,66.6
2019-01-31T03:59:20.241Z,66.6
2019-01-31T04:00:09.773Z,66.5
2019-01-31T04:00:59.822Z,66.6
2019-01-31T04:01:50.425Z,66.5
2019-01-31T04:02:40.195Z,66.5
2019-01-31T04:03:33.168Z,66.5
2019-01-31T04:04:20.027Z,66.5
2019-01-31T04:05:10.357Z,66.5
2019-01-31T04:06:00.559Z,66.5
2019-01-31T04:06:50.512Z,66.4
2019-01-31T04:07:40.536Z,66.4
2019-01-31T04:08:30.324Z,66.4
2019-01-31T04:09:20.649Z,66.4
2019-01-31T04:10:22.820Z,66.4
2019-01-31T04:11:01.109Z,66.4
2019-01-31T04:11:50.816Z,66.4
2019-01-31T04:12:40.887Z,66.4
2019-01-31T04:13:31.214Z,66.4
2019-01-31T04:14:21.366Z,66.4
2019-01-31T04:15:11.061Z,66.3
2019-01-31T04:16:01.138Z,66.3
2019-01-31T04:16:51.148Z,66.3
2019-01-31T04:17:41.228Z,66.3
2019-01-31T04:18:31.563Z,66.3
2019-01-31T04:19:21.751Z,66.3
2019-01-31T04:20:11.416Z,66.3
2019-01-31T04:21:01.189Z,66.3
2019-01-31T04:21:51.298Z,66.3
2019-01-31T04:22:41.573Z,66.3
2019-01-31T04:23:31.663Z,66.3
2019-01-31T04:24:21.953Z,66.3
2019-01-31T04:25:26.328Z,66.3
2019-01-31T04:26:02.154Z,66.2
2019-01-31T04:26:52.139Z,66.2
2019-01-31T04:27:41.928Z,66.2
2019-01-31T04:28:34.155Z,66.2
2019-01-31T04:29:22.070Z,66.2
2019-01-31T04:30:11.928Z,66.1
2019-01-31T04:31:02.238Z,66.1
2019-01-31T04:31:51.937Z,66.1
2019-01-31T04:32:42.646Z,66.1
2019-01-31T04:33:32.619Z,66.1
2019-01-31T04:34:22.665Z,66.1
2019-01-31T04:35:12.198Z,66.1
2019-01-31T04:36:02.517Z,66.1
2019-01-31T04:36:52.846Z,66.1
2019-01-31T04:37:42.632Z,66.1
2019-01-31T04:38:32.959Z,66.1
2019-01-31T04:39:22.179Z,66.1
2019-01-31T04:40:12.875Z,66.1
2019-01-31T04:41:03.118Z,66
2019-01-31T04:41:52.913Z,66
2019-01-31T04:42:43.312Z,66
2019-01-31T04:43:32.994Z,66
2019-01-31T04:44:22.532Z,66
2019-01-31T04:45:13.446Z,66
2019-01-31T04:46:02.642Z,65.9
2019-01-31T04:46:53.512Z,65.9
2019-01-31T04:47:43.549Z,65.9
2019-01-31T04:48:33.370Z,65.9
2019-01-31T04:49:23.396Z,65.9
2019-01-31T04:50:13.758Z,65.9
2019-01-31T04:51:03.654Z,65.9
2019-01-31T04:51:53.572Z,65.9
2019-01-31T04:52:43.892Z,65.9
2019-01-31T04:53:33.689Z,65.9
2019-01-31T04:54:23.503Z,65.9
2019-01-31T04:55:13.850Z,65.9
2019-01-31T04:56:03.595Z,65.9
2019-01-31T04:56:53.644Z,65.9
2019-01-31T04:57:43.989Z,65.8
2019-01-31T04:58:34.303Z,65.8
2019-01-31T04:59:23.536Z,65.8
2019-01-31T05:00:13.878Z,65.8
2019-01-31T05:01:03.953Z,65.8
2019-01-31T05:01:54.094Z,65.8
2019-01-31T05:02:44.325Z,65.8
2019-01-31T05:03:34.110Z,65.8
2019-01-31T05:04:24.498Z,65.8
2019-01-31T05:05:14.485Z,65.8
2019-01-31T05:06:04.325Z,65.8
2019-01-31T05:06:54.627Z,65.8
2019-01-31T05:07:44.987Z,65.8
2019-01-31T05:08:35.051Z,65.8
2019-01-31T05:09:24.795Z,65.8
2019-01-31T05:10:14.551Z,65.7
2019-01-31T05:11:04.878Z,65.7
2019-01-31T05:11:55.440Z,65.7
2019-01-31T05:12:45.055Z,65.7
2019-01-31T05:13:35.341Z,65.7
2019-01-31T05:14:25.166Z,65.7
2019-01-31T05:15:15.215Z,65.7
2019-01-31T05:16:07.891Z,65.6
2019-01-31T05:16:55.762Z,65.6
2019-01-31T05:17:45.765Z,65.6
2019-01-31T05:18:35.592Z,65.6
2019-01-31T05:19:25.785Z,65.6
2019-01-31T05:20:15.817Z,65.6
2019-01-31T05:21:05.897Z,65.6
2019-01-31T05:21:55.628Z,65.6
2019-01-31T05:22:45.591Z,65.6
2019-01-31T05:23:35.795Z,65.6
2019-01-31T05:24:25.797Z,65.6
2019-01-31T05:25:15.909Z,65.6
2019-01-31T05:26:06.208Z,65.5
2019-01-31T05:26:56.004Z,65.5
2019-01-31T05:27:46.033Z,65.5
2019-01-31T05:28:36.415Z,65.5
2019-01-31T05:29:26.431Z,65.5
2019-01-31T05:30:15.946Z,65.4
2019-01-31T05:31:06.027Z,65.5
2019-01-31T05:31:56.350Z,65.4
2019-01-31T05:32:46.682Z,65.4
2019-01-31T05:33:36.177Z,65.4
2019-01-31T05:34:26.233Z,65.4
2019-01-31T05:35:16.689Z,65.4
2019-01-31T05:36:06.545Z,65.4
2019-01-31T05:36:56.944Z,65.4
2019-01-31T05:37:47.147Z,65.4
2019-01-31T05:38:36.771Z,65.4
2019-01-31T05:39:26.268Z,65.4
2019-01-31T05:40:17.193Z,65.4
2019-01-31T05:41:06.953Z,65.4
2019-01-31T05:41:56.746Z,65.4
2019-01-31T05:42:47.101Z,65.4
2019-01-31T05:43:37.410Z,65.4
2019-01-31T05:44:27.376Z,65.3
2019-01-31T05:45:17.533Z,65.3
2019-01-31T05:46:07.303Z,65.3
2019-01-31T05:46:57.106Z,65.3
2019-01-31T05:47:47.588Z,65.3
2019-01-31T05:48:37.748Z,65.3
2019-01-31T05:49:27.371Z,65.3
2019-01-31T05:50:17.028Z,65.3
2019-01-31T05:51:07.628Z,65.3
2019-01-31T05:51:57.968Z,65.3
2019-01-31T05:52:48.079Z,65.3
2019-01-31T05:53:37.788Z,65.3
2019-01-31T05:54:28.150Z,65.2
2019-01-31T05:55:18.284Z,65.2
2019-01-31T05:56:08.331Z,65.2
2019-01-31T05:56:58.027Z,65.2
2019-01-31T05:57:48.095Z,65.2
2019-01-31T05:58:38.437Z,65.2
2019-01-31T05:59:28.005Z,65.2
2019-01-31T06:00:18.420Z,65.2
2019-01-31T06:01:08.641Z,65.2
2019-01-31T06:01:58.132Z,65.1
2019-01-31T06:02:48.688Z,65.1
2019-01-31T06:03:38.194Z,65.1
2019-01-31T06:04:28.332Z,65.1
2019-01-31T06:06:26.607Z,65.1
2019-01-31T06:07:16.654Z,65.1
2019-01-31T06:08:06.842Z,65.1
2019-01-31T06:08:56.871Z,65.1
2019-01-31T06:09:46.830Z,65.1
2019-01-31T06:10:37.233Z,65.1
2019-01-31T06:11:26.961Z,65.1
2019-01-31T06:12:16.732Z,65.1
2019-01-31T06:13:07.059Z,65
2019-01-31T06:13:57.243Z,65
2019-01-31T06:14:47.169Z,65
2019-01-31T06:15:36.979Z,65
2019-01-31T06:16:26.997Z,65
2019-01-31T06:17:17.351Z,65
2019-01-31T06:18:07.137Z,65
2019-01-31T06:18:57.284Z,64.9
2019-01-31T06:19:47.216Z,64.9
2019-01-31T06:20:36.763Z,64.9
2019-01-31T06:21:27.071Z,64.9
2019-01-31T06:22:17.416Z,64.9
2019-01-31T06:23:07.468Z,64.9
2019-01-31T06:23:57.783Z,64.9
2019-01-31T06:24:47.583Z,64.9
2019-01-31T06:25:37.643Z,64.9
2019-01-31T06:26:27.965Z,64.9
2019-01-31T06:27:17.455Z,64.9
2019-01-31T06:28:07.825Z,64.9
2019-01-31T06:28:58.146Z,64.9
2019-01-31T06:29:47.917Z,64.9
2019-01-31T06:30:38.048Z,64.8
2019-01-31T06:31:28.331Z,64.8
2019-01-31T06:32:18.105Z,64.8
2019-01-31T06:33:07.891Z,64.8
2019-01-31T06:33:58.582Z,64.8
2019-01-31T06:34:48.565Z,64.8
2019-01-31T06:35:38.083Z,64.8
2019-01-31T06:36:28.648Z,64.8
2019-01-31T06:37:17.862Z,64.8
2019-01-31T06:38:08.582Z,64.8
2019-01-31T06:38:58.282Z,64.8
2019-01-31T06:39:48.332Z,64.8
2019-01-31T06:40:38.929Z,64.8
2019-01-31T06:41:28.992Z,64.7
2019-01-31T06:42:18.757Z,64.7
2019-01-31T06:43:08.539Z,64.7
2019-01-31T06:43:59.162Z,64.7
2019-01-31T06:44:49.209Z,64.7
2019-01-31T06:45:38.989Z,64.7
2019-01-31T06:46:29.336Z,64.7
2019-01-31T06:47:19.391Z,64.6
2019-01-31T06:48:09.472Z,64.6
2019-01-31T06:48:58.972Z,64.6
2019-01-31T06:49:49.009Z,64.6
2019-01-31T06:50:39.622Z,64.6
2019-01-31T06:51:29.671Z,64.6
2019-01-31T06:52:19.724Z,64.6
2019-01-31T06:53:09.519Z,64.6
2019-01-31T06:53:59.844Z,64.6
2019-01-31T06:54:49.624Z,64.6
2019-01-31T06:55:39.399Z,64.6
2019-01-31T06:56:30.134Z,64.6
2019-01-31T06:57:19.499Z,64.6
2019-01-31T06:58:09.846Z,64.6
2019-01-31T06:58:59.737Z,64.5
2019-01-31T06:59:50.252Z,64.5
2019-01-31T07:00:40.293Z,64.5
2019-01-31T07:01:30.096Z,64.5
2019-01-31T07:02:20.430Z,64.5
2019-01-31T07:03:10.471Z,64.5
2019-01-31T07:04:00.523Z,64.5
2019-01-31T07:07:26.096Z,64.4
2019-01-31T07:08:30.700Z,64.4
2019-01-31T07:09:02.049Z,64.4
2019-01-31T07:09:51.813Z,64.4
2019-01-31T07:10:42.420Z,64.4
2019-01-31T07:11:36.519Z,64.4
2019-01-31T07:12:22.648Z,64.4
2019-01-31T07:13:11.849Z,64.4
2019-01-31T07:14:02.376Z,64.4
2019-01-31T07:14:52.140Z,64.4
2019-01-31T07:15:41.922Z,64.4
2019-01-31T07:16:32.555Z,64.4
2019-01-31T07:17:22.061Z,64.3
2019-01-31T07:18:12.367Z,64.3
2019-01-31T07:19:02.298Z,64.3
2019-01-31T07:19:53.071Z,64.3
2019-01-31T07:20:42.572Z,64.3
2019-01-31T07:21:32.888Z,64.3
2019-01-31T07:22:23.277Z,64.3
2019-01-31T07:23:12.994Z,64.3
2019-01-31T07:24:03.185Z,64.3
2019-01-31T07:24:53.117Z,64.3
2019-01-31T07:25:43.439Z,64.3
2019-01-31T07:26:33.637Z,64.3
2019-01-31T07:27:23.575Z,64.3
2019-01-31T07:28:13.067Z,64.2
2019-01-31T07:29:03.115Z,64.2
2019-01-31T07:29:53.189Z,64.2
2019-01-31T07:30:43.511Z,64.2
2019-01-31T07:31:33.696Z,64.2
2019-01-31T07:32:23.624Z,64.2
2019-01-31T07:33:13.691Z,64.1
2019-01-31T07:34:03.226Z,64.1
2019-01-31T07:34:53.534Z,64.1
2019-01-31T07:35:43.752Z,64.1
2019-01-31T07:36:33.952Z,64.1
2019-01-31T07:37:23.858Z,64.1
2019-01-31T07:38:13.751Z,64.1
2019-01-31T07:39:03.826Z,64.1
2019-01-31T07:39:54.133Z,64.1
2019-01-31T07:40:43.646Z,64.1
2019-01-31T07:41:44.653Z,64.1
2019-01-31T07:42:23.758Z,64.1
2019-01-31T07:43:14.118Z,64.1
2019-01-31T07:44:04.453Z,64
2019-01-31T07:44:53.760Z,64.1
2019-01-31T07:45:44.650Z,64
2019-01-31T07:46:34.448Z,64
2019-01-31T07:47:24.387Z,64
2019-01-31T07:48:14.997Z,64
2019-01-31T07:49:04.508Z,64
2019-01-31T07:49:55.115Z,63.9
2019-01-31T07:50:44.345Z,63.9
2019-01-31T07:51:35.368Z,63.9
2019-01-31T07:52:25.000Z,63.9
2019-01-31T07:53:16.897Z,63.9
2019-01-31T07:54:05.137Z,63.9
2019-01-31T07:54:55.165Z,63.9
2019-01-31T07:55:45.527Z,63.9
2019-01-31T07:56:34.816Z,63.9
2019-01-31T07:57:25.347Z,63.9
2019-01-31T07:58:15.737Z,63.9
2019-01-31T07:59:05.462Z,63.9
2019-01-31T07:59:55.250Z,63.8
2019-01-31T08:00:45.573Z,63.8
2019-01-31T08:01:35.926Z,63.8
2019-01-31T08:02:25.435Z,63.8
2019-01-31T08:03:15.199Z,63.8
2019-01-31T08:04:06.621Z,63.8
2019-01-31T08:04:56.140Z,63.8
2019-01-31T08:05:45.354Z,63.8
2019-01-31T08:06:35.551Z,63.8
2019-01-31T08:07:29.205Z,63.8
2019-01-31T08:08:16.383Z,63.8
2019-01-31T08:09:06.152Z,63.8
2019-01-31T08:09:59.107Z,63.8
2019-01-31T08:10:45.703Z,63.7
2019-01-31T08:11:36.602Z,63.8
2019-01-31T08:12:26.379Z,63.7
2019-01-31T08:13:16.176Z,63.7
2019-01-31T08:14:06.512Z,63.7
2019-01-31T08:14:56.571Z,63.7
2019-01-31T08:15:46.183Z,63.7
2019-01-31T08:16:36.939Z,63.6
2019-01-31T08:17:27.006Z,63.7
2019-01-31T08:18:17.091Z,63.6
2019-01-31T08:19:06.873Z,63.6
2019-01-31T08:19:56.615Z,63.6
2019-01-31T08:20:46.523Z,63.6
2019-01-31T08:21:37.286Z,63.6
2019-01-31T08:22:27.076Z,63.6
2019-01-31T08:23:17.425Z,63.6
2019-01-31T08:24:10.133Z,63.6
2019-01-31T08:24:56.429Z,63.6
2019-01-31T08:25:47.043Z,63.6
2019-01-31T08:26:37.363Z,63.6
2019-01-31T08:27:27.183Z,63.6
2019-01-31T08:28:17.766Z,63.5
2019-01-31T08:29:07.805Z,63.5
2019-01-31T08:29:57.591Z,63.5
2019-01-31T08:30:47.411Z,63.5
2019-01-31T08:31:37.975Z,63.5
2019-01-31T08:32:27.776Z,63.5
2019-01-31T08:33:17.285Z,63.4
2019-01-31T08:34:07.595Z,63.4
2019-01-31T08:34:57.668Z,63.4
2019-01-31T08:35:48.000Z,63.4
2019-01-31T08:36:38.335Z,63.4
2019-01-31T08:37:28.055Z,63.4
2019-01-31T08:38:17.908Z,63.4
2019-01-31T08:39:08.337Z,63.4
2019-01-31T08:39:58.572Z,63.4
2019-01-31T08:40:48.345Z,63.4
2019-01-31T08:41:38.397Z,63.4
2019-01-31T08:42:28.454Z,63.4
2019-01-31T08:43:21.435Z,63.4
2019-01-31T08:44:08.607Z,63.3
2019-01-31T08:44:58.349Z,63.3
2019-01-31T08:45:48.985Z,63.3
2019-01-31T08:46:38.743Z,63.3
2019-01-31T08:47:28.290Z,63.3
2019-01-31T08:48:19.136Z,63.3
2019-01-31T08:49:08.917Z,63.3
2019-01-31T08:49:59.259Z,63.3
2019-01-31T08:50:49.042Z,63.3
2019-01-31T08:51:39.214Z,63.3
2019-01-31T08:52:29.281Z,63.3
2019-01-31T08:53:19.206Z,63.3
2019-01-31T08:54:09.271Z,63.2
2019-01-31T08:54:59.605Z,63.2
2019-01-31T08:55:50.972Z,63.2
2019-01-31T08:56:38.606Z,63.2
2019-01-31T08:57:29.237Z,63.1
2019-01-31T08:58:19.851Z,63.1
2019-01-31T08:59:08.849Z,63.1
2019-01-31T08:59:58.826Z,63.1
2019-01-31T09:00:49.463Z,63.1
2019-01-31T09:01:39.846Z,63.1
2019-01-31T09:02:29.566Z,63.1
2019-01-31T09:03:20.008Z,63.1
2019-01-31T09:04:09.680Z,63.1
2019-01-31T09:05:00.330Z,63.1
2019-01-31T09:05:50.346Z,63
2019-01-31T09:06:40.123Z,63
2019-01-31T09:07:33.162Z,63
2019-01-31T09:08:19.488Z,63
2019-01-31T09:09:10.317Z,63
2019-01-31T09:10:00.790Z,63
2019-01-31T09:10:50.698Z,62.9
2019-01-31T09:11:40.047Z,62.9
2019-01-31T09:12:30.802Z,62.9
2019-01-31T09:13:20.590Z,62.9
2019-01-31T09:14:10.461Z,62.9
2019-01-31T09:15:00.815Z,62.9
2019-01-31T09:15:51.040Z,62.9
2019-01-31T09:16:41.106Z,62.9
2019-01-31T09:17:30.130Z,62.9
2019-01-31T09:18:20.975Z,62.9
2019-01-31T09:19:11.150Z,62.8
2019-01-31T09:20:00.577Z,62.9
2019-01-31T09:20:51.422Z,62.8
2019-01-31T09:21:40.760Z,62.8
2019-01-31T09:22:30.677Z,62.8
2019-01-31T09:23:21.304Z,62.8
2019-01-31T09:24:10.802Z,62.8
2019-01-31T09:25:01.312Z,62.8
2019-01-31T09:25:51.757Z,62.8
2019-01-31T09:26:41.258Z,62.8
2019-01-31T09:27:31.322Z,62.8
2019-01-31T09:28:21.659Z,62.7
2019-01-31T09:29:11.414Z,62.7
2019-01-31T09:30:02.053Z,62.7
2019-01-31T09:30:52.112Z,62.7
2019-01-31T09:31:40.792Z,62.7
2019-01-31T09:32:32.225Z,62.7
2019-01-31T09:33:22.297Z,62.6
2019-01-31T09:34:11.496Z,62.6
2019-01-31T09:35:04.838Z,62.6
2019-01-31T09:35:52.161Z,62.6
2019-01-31T09:36:42.506Z,62.6
2019-01-31T09:37:32.291Z,62.6
2019-01-31T09:38:22.066Z,62.6
2019-01-31T09:39:12.691Z,62.6
2019-01-31T09:40:02.789Z,62.6
2019-01-31T09:40:52.243Z,62.5
2019-01-31T09:41:42.870Z,62.5
2019-01-31T09:42:32.626Z,62.5
2019-01-31T09:43:22.983Z,62.5
2019-01-31T09:44:13.043Z,62.4
2019-01-31T09:45:06.341Z,62.4
2019-01-31T09:45:52.954Z,62.4
2019-01-31T09:46:42.578Z,62.4
2019-01-31T09:47:35.698Z,62.4
2019-01-31T09:48:23.057Z,62.4
2019-01-31T09:49:12.838Z,62.4
2019-01-31T09:50:02.848Z,62.3
2019-01-31T09:50:52.670Z,62.3
2019-01-31T09:51:43.590Z,62.3
2019-01-31T09:52:33.352Z,62.3
2019-01-31T09:53:23.120Z,62.3
2019-01-31T09:54:13.281Z,62.3
2019-01-31T09:55:03.853Z,62.3
2019-01-31T09:55:53.330Z,62.3
2019-01-31T09:56:43.645Z,62.3
2019-01-31T09:57:33.992Z,62.2
2019-01-31T09:58:24.146Z,62.2
2019-01-31T09:59:13.355Z,62.2
2019-01-31T10:00:03.646Z,62.2
2019-01-31T10:00:53.652Z,62.1
2019-01-31T10:01:44.258Z,62.1
2019-01-31T10:02:33.765Z,62.1
2019-01-31T10:03:23.834Z,62.1
2019-01-31T10:04:14.175Z,62.1
2019-01-31T10:05:04.515Z,62.1
2019-01-31T10:07:26.375Z,62
2019-01-31T10:08:16.509Z,62
2019-01-31T10:09:06.300Z,62
2019-01-31T10:09:56.264Z,62
2019-01-31T10:10:47.365Z,62
2019-01-31T10:11:35.724Z,61.9
2019-01-31T10:12:39.824Z,61.9
2019-01-31T10:13:17.205Z,61.9
2019-01-31T10:14:07.201Z,61.9
2019-01-31T10:14:57.189Z,61.9
2019-01-31T10:15:46.997Z,61.9
2019-01-31T10:16:37.337Z,61.9
2019-01-31T10:17:26.928Z,61.9
2019-01-31T10:18:17.607Z,61.9
2019-01-31T10:19:07.039Z,61.8
2019-01-31T10:19:57.680Z,61.8
2019-01-31T10:20:46.749Z,61.8
2019-01-31T10:21:37.620Z,61.8
2019-01-31T10:22:28.098Z,61.8
2019-01-31T10:23:17.941Z,61.8
2019-01-31T10:24:07.623Z,61.8
2019-01-31T10:24:58.971Z,61.8
2019-01-31T10:25:47.406Z,61.7
2019-01-31T10:26:37.698Z,61.8
2019-01-31T10:27:26.943Z,61.7
2019-01-31T10:28:17.808Z,61.7
2019-01-31T10:29:07.615Z,61.7
2019-01-31T10:29:57.993Z,61.7
2019-01-31T10:30:47.725Z,61.6
2019-01-31T10:31:37.773Z,61.6
2019-01-31T10:32:28.114Z,61.6
2019-01-31T10:33:17.895Z,61.6
2019-01-31T10:34:07.746Z,61.6
2019-01-31T10:34:58.282Z,61.6
2019-01-31T10:35:48.053Z,61.6
2019-01-31T10:36:37.854Z,61.6
2019-01-31T10:37:28.188Z,61.6
2019-01-31T10:38:18.645Z,61.6
2019-01-31T10:39:08.013Z,61.5
2019-01-31T10:39:58.630Z,61.5
2019-01-31T10:40:48.702Z,61.5
2019-01-31T10:41:38.199Z,61.4
2019-01-31T10:42:28.820Z,61.4
2019-01-31T10:43:18.360Z,61.4
2019-01-31T10:44:08.493Z,61.4
2019-01-31T10:44:58.989Z,61.4
2019-01-31T10:45:48.245Z,61.4
2019-01-31T10:46:38.954Z,61.4
2019-01-31T10:47:28.746Z,61.4
2019-01-31T10:48:18.682Z,61.4
2019-01-31T10:49:08.722Z,61.4
2019-01-31T10:49:59.066Z,61.3
2019-01-31T10:50:49.143Z,61.3
2019-01-31T10:51:39.189Z,61.3
2019-01-31T10:52:29.257Z,61.3
2019-01-31T10:53:19.667Z,61.3
2019-01-31T10:54:09.491Z,61.3
2019-01-31T10:54:59.704Z,61.3
2019-01-31T10:55:49.209Z,61.3
2019-01-31T10:56:39.370Z,61.3
2019-01-31T10:57:29.629Z,61.2
2019-01-31T10:58:19.782Z,61.2
2019-01-31T10:59:09.986Z,61.2
2019-01-31T11:00:00.036Z,61.1
2019-01-31T11:00:49.548Z,61.1
2019-01-31T11:01:39.888Z,61.1
2019-01-31T11:02:30.343Z,61.1
2019-01-31T11:03:19.727Z,61.1
2019-01-31T11:04:10.334Z,61.1
2019-01-31T11:05:00.184Z,61.1
2019-01-31T11:05:50.178Z,61.1
2019-01-31T11:06:40.528Z,61.1
2019-01-31T11:07:30.438Z,61.1
2019-01-31T11:08:20.163Z,61
2019-01-31T11:09:09.390Z,61
2019-01-31T11:09:59.438Z,61
2019-01-31T11:10:50.195Z,61
2019-01-31T11:11:40.862Z,61
2019-01-31T11:12:30.448Z,60.9
2019-01-31T11:13:20.518Z,60.9
2019-01-31T11:14:10.410Z,60.9
2019-01-31T11:15:00.065Z,60.9
2019-01-31T11:15:50.715Z,60.9
2019-01-31T11:16:41.222Z,60.9